CheckWX is a tool to help pilots better visualize weather data.  It is not intended as a substitute for an official pre-flight weather briefing.

23:26:29 UTC

KSZL METAR
Whiteman AFB Airport
Knob Noster, Missouri, USA
Current

39 mins ago

KSZL 222247Z 02012KT 10SM -RA OVC065 02/M03 A3006 RMK AO2A RAE07DZB07E09RAB47 SLP189 VISNO RWY19 $
Observed
Nov-22 @ 22:47 UTC
Wind
  • 020° at 12 KTS
Visibility
10 SM
Flight Rules
VFR
Conditions
Light Rain
Cloud Levels
  • Overcast at 6,500' AGL
Temperature
C / 36°F
Dewpoint
-3°C / 27°F
Humidity
70%
Altimeter
30.06" Hg
Pressure
1017.92 hPa
Previous

1 hour ago

KSZL 222220Z 03011KT 10SM BKN065 02/M03 A3006 RMK RAE07DZB07E09 SLP189 VISNO RWY19 $
Observed
Nov-22 @ 22:20 UTC
Wind
  • 030° at 11 KTS
Visibility
10 SM
Flight Rules
VFR
Cloud Levels
  • Broken at 6,500' AGL
Temperature
C / 36°F
Dewpoint
-3°C / 27°F
Humidity
70%
Altimeter
30.06" Hg
Pressure
1017.92 hPa
Previous

2 hours ago

KSZL 222156Z 02011KT 10SM -RA SCT050 OVC070 02/M03 A3007 RMK AO2A DZB12E22DZB34E35RAB35E48RAB50 SLP192 P0000 T00231034 VISNO RWY19 $
Observed
Nov-22 @ 21:56 UTC
Wind
  • 020° at 11 KTS
Visibility
10 SM
Flight Rules
VFR
Conditions
Light Rain
Cloud Levels
  • Scattered at 5,000' AGL
  • Overcast at 7,000' AGL
Temperature
C / 36°F
Dewpoint
-3°C / 27°F
Humidity
70%
Altimeter
30.07" Hg
Pressure
1018.32 hPa
Current Rain
0.01"